Time;durP1;ratioP1;P1;durP2;ratioP2;P2;SDS_P1;SDS_P2;PMS_P1;PMS_P2;Temp;Humidity;BMP_temperature;BMP_pressure;BME280_temperature;BME280_humidity;BME280_pressure;Samples;Min_cycle;Max_cycle;Signal;HPM_P1;HPM_P2
2024/02/13 00:00:32;;;;;;;4.70;2.90;;;8.90;99.90;;;;;;5009943;28;20189;-74
2024/02/13 00:02:58;;;;;;;9.67;3.50;;;9.00;99.90;;;;;;5018130;28;20195;-75
2024/02/13 00:05:24;;;;;;;11.07;3.87;;;9.00;99.90;;;;;;5010223;28;20957;-72
2024/02/13 00:07:50;;;;;;;6.17;3.13;;;9.00;99.90;;;;;;5015569;28;20189;-72
2024/02/13 00:10:16;;;;;;;5.70;2.93;;;9.00;99.90;;;;;;5018968;28;20466;-72
2024/02/13 00:12:42;;;;;;;6.23;3.00;;;9.00;99.90;;;;;;5014755;28;20216;-72
2024/02/13 00:15:14;;;;;;;11.93;4.00;;;9.00;99.90;;;;;;5013404;28;20478;-72
2024/02/13 00:17:41;;;;;;;10.27;3.47;;;9.10;99.90;;;;;;5013454;28;20645;-71
2024/02/13 00:20:08;;;;;;;5.60;3.20;;;9.10;99.90;;;;;;5011765;28;20822;-70
2024/02/13 00:22:35;;;;;;;9.53;3.07;;;9.10;99.90;;;;;;5014458;28;20438;-71
2024/02/13 00:25:01;;;;;;;6.53;3.13;;;9.00;99.90;;;;;;5017471;28;20447;-71
2024/02/13 00:27:27;;;;;;;5.13;3.03;;;9.00;99.90;;;;;;5018341;28;20465;-72
2024/02/13 00:29:53;;;;;;;9.40;3.17;;;8.90;99.90;;;;;;5008121;28;20471;-72
2024/02/13 00:32:19;;;;;;;9.40;3.43;;;8.90;99.90;;;;;;5015578;28;21152;-72
2024/02/13 00:34:44;;;;;;;7.73;3.07;;;8.80;99.90;;;;;;5009824;28;20196;-72
2024/02/13 00:37:10;;;;;;;8.50;3.27;;;8.80;99.90;;;;;;5015834;28;20415;-72
2024/02/13 00:39:37;;;;;;;6.13;3.97;;;8.80;99.90;;;;;;5016746;28;20223;-72
2024/02/13 00:42:04;;;;;;;8.03;3.30;;;8.80;99.90;;;;;;5010058;28;20525;-73
2024/02/13 00:44:29;;;;;;;8.80;3.43;;;8.80;99.90;;;;;;5008029;28;20490;-72
2024/02/13 00:46:57;;;;;;;5.03;3.40;;;8.60;99.90;;;;;;5013436;28;20439;-72
2024/02/13 00:49:23;;;;;;;10.83;3.53;;;8.60;99.90;;;;;;5012638;28;20205;-72
2024/02/13 00:51:49;;;;;;;6.50;3.50;;;8.70;99.90;;;;;;5013123;28;20429;-72
2024/02/13 00:54:16;;;;;;;8.30;3.33;;;8.70;99.90;;;;;;5009026;28;20315;-72
2024/02/13 00:56:43;;;;;;;6.23;3.30;;;8.70;99.90;;;;;;5010294;28;20205;-72
2024/02/13 00:59:09;;;;;;;6.60;2.90;;;8.60;99.90;;;;;;5008932;28;20427;-72
2024/02/13 01:01:35;;;;;;;8.47;3.93;;;8.60;99.90;;;;;;5013115;28;20423;-72
2024/02/13 01:04:06;;;;;;;8.53;3.87;;;8.60;99.90;;;;;;5010459;28;20516;-73
2024/02/13 01:06:35;;;;;;;8.47;3.47;;;8.60;99.90;;;;;;5006818;28;20439;-73
2024/02/13 01:09:03;;;;;;;5.60;2.90;;;8.50;99.90;;;;;;5008492;28;20466;-72
2024/02/13 01:11:29;;;;;;;4.20;2.97;;;8.60;99.90;;;;;;5009073;28;20456;-72
2024/02/13 01:13:55;;;;;;;6.43;3.60;;;8.70;99.90;;;;;;5012441;28;20865;-72
2024/02/13 01:16:22;;;;;;;9.60;2.73;;;8.70;99.90;;;;;;5013460;28;20427;-73
2024/02/13 01:18:51;;;;;;;6.70;2.90;;;8.60;99.90;;;;;;5012949;28;20663;-72
2024/02/13 01:21:19;;;;;;;10.10;3.23;;;8.70;99.90;;;;;;5010288;28;20506;-73
2024/02/13 01:23:46;;;;;;;5.90;3.07;;;8.70;99.90;;;;;;5013098;28;20471;-73
2024/02/13 01:26:11;;;;;;;8.27;3.33;;;8.70;99.90;;;;;;5013064;28;20415;-73
2024/02/13 01:28:37;;;;;;;6.90;2.93;;;8.70;99.90;;;;;;5010119;28;20438;-72
2024/02/13 01:31:03;;;;;;;6.57;2.97;;;8.70;99.90;;;;;;5012282;28;20288;-72
2024/02/13 01:33:29;;;;;;;8.97;3.77;;;8.70;99.90;;;;;;5012740;28;20555;-72
2024/02/13 01:35:55;;;;;;;6.07;2.97;;;8.80;99.90;;;;;;5012338;28;20177;-72
2024/02/13 01:38:21;;;;;;;6.33;3.83;;;8.80;99.90;;;;;;5019698;28;20518;-72
2024/02/13 01:40:48;;;;;;;11.13;3.60;;;8.70;99.90;;;;;;5014361;28;20546;-72
2024/02/13 01:43:14;;;;;;;5.63;2.90;;;8.70;99.90;;;;;;5012235;28;20768;-72
2024/02/13 01:45:40;;;;;;;6.47;2.90;;;8.80;99.90;;;;;;5012366;28;20424;-71
2024/02/13 01:48:10;;;;;;;6.50;3.17;;;8.80;99.90;;;;;;5017349;28;21051;-72
2024/02/13 01:50:37;;;;;;;5.03;3.03;;;8.80;99.90;;;;;;5011427;28;20200;-72
2024/02/13 01:53:03;;;;;;;5.40;2.70;;;8.70;99.90;;;;;;5015231;28;20942;-72
2024/02/13 01:55:30;;;;;;;7.83;3.07;;;8.70;99.90;;;;;;5009603;28;20469;-71
2024/02/13 01:57:58;;;;;;;5.90;3.40;;;8.80;99.90;;;;;;5013905;28;20421;-72
2024/02/13 02:00:27;;;;;;;7.23;3.13;;;8.70;99.90;;;;;;5013804;28;20540;-71
2024/02/13 02:02:54;;;;;;;7.87;3.47;;;8.70;99.90;;;;;;5022328;28;20548;-71
2024/02/13 02:05:20;;;;;;;6.73;3.37;;;8.70;99.90;;;;;;5019243;28;20438;-72
2024/02/13 02:07:46;;;;;;;10.03;3.70;;;8.70;99.90;;;;;;5017992;28;20411;-71
2024/02/13 02:10:14;;;;;;;8.37;3.23;;;8.80;99.90;;;;;;5020589;28;20494;-71
2024/02/13 02:12:40;;;;;;;8.17;3.30;;;8.80;99.90;;;;;;5016554;28;20176;-72
2024/02/13 02:15:09;;;;;;;10.47;3.60;;;8.70;99.90;;;;;;5017000;28;20518;-71
2024/02/13 02:17:35;;;;;;;8.73;3.47;;;8.70;99.90;;;;;;5016006;28;20518;-71
2024/02/13 02:20:00;;;;;;;6.27;3.27;;;8.70;99.90;;;;;;5019970;28;20526;-71
2024/02/13 02:22:27;;;;;;;6.13;3.43;;;8.80;99.90;;;;;;5014021;28;20262;-72
2024/02/13 02:24:53;;;;;;;7.50;3.97;;;8.80;99.90;;;;;;5018632;28;20224;-71
2024/02/13 02:27:19;;;;;;;6.83;3.70;;;8.80;99.90;;;;;;5015984;28;20578;-71
2024/02/13 02:29:45;;;;;;;10.23;3.50;;;8.90;99.90;;;;;;5011470;28;20270;-71
2024/02/13 02:32:10;;;;;;;8.27;4.57;;;8.90;99.90;;;;;;5013004;28;20420;-71
2024/02/13 02:34:36;;;;;;;5.57;3.33;;;8.80;99.90;;;;;;5018959;28;20192;-71
2024/02/13 02:37:02;;;;;;;6.73;4.30;;;8.80;99.90;;;;;;5022435;28;20292;-71
2024/02/13 02:39:28;;;;;;;10.13;4.60;;;8.80;99.90;;;;;;5014556;28;20264;-71
2024/02/13 02:41:54;;;;;;;7.63;3.80;;;9.00;99.90;;;;;;5023327;28;21042;-71
2024/02/13 02:44:19;;;;;;;10.80;3.83;;;8.90;99.90;;;;;;5022428;28;20451;-72
2024/02/13 02:46:47;;;;;;;7.80;5.60;;;8.80;99.90;;;;;;5016204;28;20185;-72
2024/02/13 02:49:13;;;;;;;8.03;3.70;;;8.80;99.90;;;;;;5015124;28;20203;-71
2024/02/13 02:51:39;;;;;;;6.73;4.00;;;8.70;99.90;;;;;;5017977;28;20517;-72
2024/02/13 02:54:05;;;;;;;10.23;4.10;;;8.80;99.90;;;;;;5016800;28;20438;-71
2024/02/13 02:56:31;;;;;;;10.07;3.80;;;8.70;99.90;;;;;;5016626;28;20252;-71
2024/02/13 02:58:56;;;;;;;9.63;3.70;;;8.70;99.90;;;;;;5014272;28;20548;-71
2024/02/13 03:01:22;;;;;;;5.23;3.47;;;8.70;99.90;;;;;;5021143;28;20184;-71
2024/02/13 03:03:50;;;;;;;8.13;4.23;;;8.60;99.90;;;;;;5012807;28;20324;-71
2024/02/13 03:06:16;;;;;;;9.23;3.90;;;8.70;99.90;;;;;;5020066;28;20184;-71
2024/02/13 03:08:42;;;;;;;9.63;3.57;;;8.60;99.90;;;;;;5022578;28;20435;-71
2024/02/13 03:11:08;;;;;;;9.93;3.37;;;8.60;99.90;;;;;;5015859;28;20474;-71
2024/02/13 03:13:34;;;;;;;9.73;4.07;;;8.50;99.90;;;;;;5015497;28;20446;-71
2024/02/13 03:16:00;;;;;;;8.67;4.10;;;8.60;99.90;;;;;;5016042;28;20427;-71
2024/02/13 03:18:26;;;;;;;7.20;3.70;;;8.60;99.90;;;;;;5000397;28;20235;-71
2024/02/13 03:20:52;;;;;;;4.20;3.07;;;8.50;99.90;;;;;;5015590;28;20271;-71
2024/02/13 03:23:19;;;;;;;10.20;4.17;;;8.50;99.90;;;;;;5022444;28;20518;-71
2024/02/13 03:25:44;;;;;;;9.30;3.70;;;8.40;99.90;;;;;;5016620;28;20909;-71
2024/02/13 03:28:11;;;;;;;9.90;3.77;;;8.50;99.90;;;;;;5017799;28;20208;-71
2024/02/13 03:30:37;;;;;;;6.83;3.97;;;8.60;99.90;;;;;;5020553;28;20211;-71
2024/02/13 03:33:03;;;;;;;6.60;3.40;;;8.60;99.90;;;;;;5024606;28;20792;-71
2024/02/13 03:35:30;;;;;;;7.73;3.70;;;8.60;99.90;;;;;;5018982;28;20454;-71
2024/02/13 03:37:55;;;;;;;5.70;3.83;;;8.50;99.90;;;;;;5014063;28;20515;-71
2024/02/13 03:40:22;;;;;;;5.00;3.40;;;8.60;99.90;;;;;;5015916;28;20506;-71
2024/02/13 03:42:47;;;;;;;8.50;3.70;;;8.50;99.90;;;;;;5016236;28;20189;-71
2024/02/13 03:45:13;;;;;;;5.20;3.50;;;8.40;99.90;;;;;;5014520;28;20459;-71
2024/02/13 03:47:39;;;;;;;5.97;3.57;;;8.40;99.90;;;;;;5013426;28;20189;-72
2024/02/13 03:50:06;;;;;;;9.63;3.97;;;8.40;99.90;;;;;;5021866;28;20766;-71
2024/02/13 03:52:35;;;;;;;8.00;4.07;;;8.30;99.90;;;;;;5020957;28;20443;-71
2024/02/13 03:55:03;;;;;;;6.30;4.10;;;8.30;99.90;;;;;;5012419;28;20914;-70
2024/02/13 03:57:30;;;;;;;7.20;4.00;;;8.30;99.90;;;;;;5019651;28;20415;-71
2024/02/13 03:59:55;;;;;;;5.20;3.50;;;8.20;99.90;;;;;;5011101;28;20436;-71
2024/02/13 04:02:21;;;;;;;9.47;4.13;;;8.30;99.90;;;;;;5016989;28;20518;-71
2024/02/13 04:04:47;;;;;;;9.17;3.70;;;8.30;99.90;;;;;;5016579;28;20239;-71
2024/02/13 04:07:12;;;;;;;6.83;3.90;;;8.20;99.90;;;;;;5013033;28;20247;-71
2024/02/13 04:09:38;;;;;;;5.10;3.47;;;8.20;99.90;;;;;;5014726;28;20287;-71
2024/02/13 04:12:05;;;;;;;7.43;3.83;;;8.20;99.90;;;;;;5017993;28;20180;-71
2024/02/13 04:14:31;;;;;;;8.20;3.47;;;8.20;99.90;;;;;;5020021;28;20235;-71
2024/02/13 04:16:57;;;;;;;12.00;3.60;;;8.20;99.90;;;;;;5013391;28;20440;-71
2024/02/13 04:19:22;;;;;;;6.30;3.40;;;8.20;99.90;;;;;;5019649;28;20431;-71
2024/02/13 04:21:48;;;;;;;9.37;4.03;;;8.20;99.90;;;;;;5019482;28;20180;-71
2024/02/13 04:24:14;;;;;;;7.50;3.50;;;8.30;99.90;;;;;;5011871;28;20466;-71
2024/02/13 04:26:40;;;;;;;9.37;3.90;;;8.30;99.90;;;;;;5015888;28;20272;-72
2024/02/13 04:29:07;;;;;;;6.83;4.20;;;8.30;99.90;;;;;;5017043;28;20875;-71
2024/02/13 04:31:37;;;;;;;8.53;3.87;;;8.20;99.90;;;;;;5009842;28;20767;-71
2024/02/13 04:34:03;;;;;;;9.23;3.83;;;8.30;99.90;;;;;;5017166;28;20534;-71
2024/02/13 04:36:30;;;;;;;8.80;4.20;;;8.30;99.90;;;;;;5016722;28;20519;-71
2024/02/13 04:38:56;;;;;;;6.73;4.47;;;8.40;99.90;;;;;;5014070;28;20185;-72
2024/02/13 04:41:21;;;;;;;5.07;3.30;;;8.30;99.90;;;;;;5015106;28;20517;-72
2024/02/13 04:43:47;;;;;;;8.87;4.20;;;8.30;99.90;;;;;;5016674;28;20204;-72
2024/02/13 04:46:12;;;;;;;7.90;4.50;;;8.20;99.90;;;;;;5017923;28;20272;-72
2024/02/13 04:48:38;;;;;;;6.77;3.73;;;8.20;99.90;;;;;;5014075;28;20642;-72
2024/02/13 04:51:07;;;;;;;5.17;3.10;;;8.20;99.90;;;;;;5013070;28;20217;-72
2024/02/13 04:53:32;;;;;;;10.77;4.10;;;8.20;99.90;;;;;;5010668;28;20200;-71
2024/02/13 04:55:58;;;;;;;12.10;4.20;;;8.20;99.90;;;;;;5008369;28;20474;-72
2024/02/13 04:58:29;;;;;;;9.33;4.10;;;8.30;99.90;;;;;;5013100;28;20263;-72
2024/02/13 05:01:16;;;;;;;9.93;4.30;;;8.40;99.90;;;;;;5011293;28;20189;-72
2024/02/13 05:09:04;;;;;;;6.83;4.17;;;8.50;99.90;;;;;;5015594;28;20419;-71
2024/02/13 05:11:30;;;;;;;8.43;4.20;;;8.50;99.90;;;;;;5017338;28;20471;-71
2024/02/13 05:13:56;;;;;;;8.67;4.70;;;8.50;99.90;;;;;;5014912;28;20531;-71
2024/02/13 05:16:24;;;;;;;6.50;3.70;;;8.50;99.90;;;;;;5010273;28;20460;-71
2024/02/13 05:18:51;;;;;;;7.97;4.07;;;8.60;99.90;;;;;;5013119;28;20508;-71
2024/02/13 05:21:20;;;;;;;6.70;4.43;;;8.60;99.90;;;;;;5009851;28;20436;-71
2024/02/13 05:23:50;;;;;;;7.80;3.67;;;8.60;99.90;;;;;;5015970;28;20482;-71
2024/02/13 05:26:17;;;;;;;11.17;3.87;;;8.60;99.90;;;;;;5018953;28;20435;-70
2024/02/13 05:28:43;;;;;;;10.10;4.37;;;8.50;99.90;;;;;;5014550;28;20427;-71
2024/02/13 05:31:09;;;;;;;5.43;3.50;;;8.40;99.90;;;;;;5009439;28;20521;-71
2024/02/13 05:33:35;;;;;;;9.33;3.73;;;8.40;99.90;;;;;;5010491;28;20509;-71
2024/02/13 05:36:02;;;;;;;11.90;3.40;;;8.40;99.90;;;;;;5010250;28;20187;-71
2024/02/13 05:38:40;;;;;;;7.30;4.17;;;8.30;99.90;;;;;;5018614;28;20185;-71
2024/02/13 05:41:06;;;;;;;10.97;5.60;;;8.40;99.90;;;;;;5009507;28;20435;-71
2024/02/13 05:43:31;;;;;;;6.63;3.90;;;8.40;99.90;;;;;;5014212;28;20455;-72
2024/02/13 05:45:57;;;;;;;8.03;4.20;;;8.30;99.90;;;;;;5011195;28;20723;-71
2024/02/13 05:48:24;;;;;;;11.13;4.10;;;8.20;99.90;;;;;;5010008;28;20539;-71
2024/02/13 05:50:51;;;;;;;6.20;3.63;;;8.30;99.90;;;;;;5012922;28;20200;-71
2024/02/13 05:53:16;;;;;;;14.57;4.43;;;8.30;99.90;;;;;;5016955;28;20442;-71
2024/02/13 05:55:42;;;;;;;8.10;3.60;;;8.20;99.90;;;;;;5014491;28;20423;-71
2024/02/13 05:58:08;;;;;;;8.10;4.23;;;8.30;99.90;;;;;;5016477;28;20184;-71
2024/02/13 06:00:34;;;;;;;6.43;5.07;;;8.20;99.90;;;;;;5010311;28;20423;-71
2024/02/13 06:03:00;;;;;;;7.63;3.93;;;8.20;99.90;;;;;;5010351;28;20431;-71
2024/02/13 06:05:27;;;;;;;7.97;3.97;;;8.20;99.90;;;;;;5013323;28;20209;-71
2024/02/13 06:07:53;;;;;;;7.97;4.10;;;8.20;99.90;;;;;;5013987;28;20434;-72
2024/02/13 06:10:19;;;;;;;10.47;4.77;;;8.20;99.90;;;;;;5017746;28;20474;-71
2024/02/13 06:12:45;;;;;;;9.23;4.53;;;8.20;99.90;;;;;;5015531;28;20451;-71
2024/02/13 06:15:11;;;;;;;12.97;4.97;;;8.20;99.90;;;;;;5014102;28;20456;-71
2024/02/13 06:17:37;;;;;;;5.47;3.90;;;8.30;99.90;;;;;;5013389;28;20435;-71
2024/02/13 06:20:06;;;;;;;5.87;3.90;;;8.30;99.90;;;;;;5008140;28;20212;-71
2024/02/13 06:22:35;;;;;;;9.23;4.00;;;8.30;99.90;;;;;;5015043;28;20190;-71
2024/02/13 06:25:04;;;;;;;9.57;4.80;;;8.20;99.90;;;;;;5012055;28;20491;-71
2024/02/13 06:27:33;;;;;;;9.13;4.30;;;8.30;99.90;;;;;;5014614;28;20757;-70
2024/02/13 06:29:58;;;;;;;9.00;4.60;;;8.20;99.90;;;;;;5010858;28;20472;-70
2024/02/13 06:32:25;;;;;;;6.97;4.90;;;8.20;99.90;;;;;;5018202;28;20438;-71
2024/02/13 06:34:53;;;;;;;7.90;4.87;;;8.20;99.90;;;;;;5011797;28;20216;-71
2024/02/13 06:37:19;;;;;;;10.17;4.47;;;8.20;99.90;;;;;;5015514;28;20433;-71
2024/02/13 06:39:46;;;;;;;9.40;3.90;;;8.20;99.90;;;;;;5013792;28;20446;-71
2024/02/13 06:42:11;;;;;;;6.53;4.20;;;8.30;99.90;;;;;;5013608;28;20525;-70
2024/02/13 06:44:38;;;;;;;10.20;4.30;;;8.30;99.90;;;;;;5017308;28;20593;-71
2024/02/13 06:47:06;;;;;;;7.30;4.83;;;8.20;99.90;;;;;;5015447;28;20662;-70
2024/02/13 06:49:33;;;;;;;6.33;4.57;;;8.20;99.90;;;;;;5023033;28;20467;-71
2024/02/13 06:51:58;;;;;;;8.20;4.20;;;8.20;99.90;;;;;;5012659;28;20442;-71
2024/02/13 06:54:24;;;;;;;6.17;4.40;;;8.10;99.90;;;;;;5020058;28;20442;-70
2024/02/13 06:56:50;;;;;;;6.37;4.30;;;8.20;99.90;;;;;;5016860;28;20669;-71
2024/02/13 06:59:16;;;;;;;7.83;4.33;;;8.20;99.90;;;;;;5021392;28;20192;-71
2024/02/13 07:01:42;;;;;;;5.43;3.93;;;8.20;99.90;;;;;;5015434;28;20444;-71
2024/02/13 07:04:07;;;;;;;10.43;4.57;;;8.10;99.90;;;;;;5016313;28;20204;-71
2024/02/13 07:06:33;;;;;;;7.00;3.97;;;8.10;99.90;;;;;;5023897;28;20194;-71
2024/02/13 07:08:58;;;;;;;11.27;5.10;;;8.20;99.90;;;;;;5014746;28;20189;-71
2024/02/13 07:11:24;;;;;;;10.97;4.90;;;8.20;99.90;;;;;;5017966;28;20208;-71
2024/02/13 07:13:50;;;;;;;8.40;4.53;;;8.30;99.90;;;;;;5018046;28;20200;-71
2024/02/13 07:16:15;;;;;;;7.50;3.70;;;8.30;99.90;;;;;;5018392;28;20442;-71
2024/02/13 07:18:42;;;;;;;6.80;3.93;;;8.30;99.90;;;;;;5017652;28;20176;-71
2024/02/13 07:21:08;;;;;;;9.20;4.57;;;8.50;99.90;;;;;;5013612;28;20177;-71
2024/02/13 07:23:34;;;;;;;4.97;3.90;;;8.50;99.90;;;;;;5017064;28;20450;-71
2024/02/13 07:26:00;;;;;;;11.60;4.90;;;8.40;99.90;;;;;;5013475;28;20196;-71
2024/02/13 07:28:27;;;;;;;8.60;5.37;;;8.50;99.90;;;;;;5017055;28;20442;-71
2024/02/13 07:30:53;;;;;;;8.40;4.40;;;8.40;99.90;;;;;;5016236;28;20455;-71
2024/02/13 07:33:19;;;;;;;7.23;4.60;;;8.40;99.90;;;;;;5012158;28;20914;-71
2024/02/13 07:35:45;;;;;;;7.97;4.63;;;8.30;99.90;;;;;;5010431;28;20426;-71
2024/02/13 07:38:11;;;;;;;10.70;4.87;;;8.30;99.90;;;;;;5014090;28;20182;-71
2024/02/13 07:40:36;;;;;;;12.37;4.70;;;8.30;99.90;;;;;;5013009;28;20916;-71
2024/02/13 07:43:02;;;;;;;9.30;4.50;;;8.30;99.90;;;;;;5006640;28;20200;-70
2024/02/13 07:45:28;;;;;;;10.80;4.30;;;8.30;99.90;;;;;;5018520;28;20220;-70
2024/02/13 07:47:53;;;;;;;8.37;5.10;;;8.30;99.90;;;;;;5009416;28;20193;-70
2024/02/13 07:50:21;;;;;;;11.50;5.57;;;8.40;99.90;;;;;;5021748;28;21019;-69
2024/02/13 07:52:47;;;;;;;8.80;4.93;;;8.30;99.90;;;;;;5022463;28;20168;-69
2024/02/13 07:55:13;;;;;;;10.97;4.60;;;8.40;99.90;;;;;;5022867;28;20452;-69
2024/02/13 07:57:39;;;;;;;6.20;3.90;;;8.50;99.90;;;;;;5020181;28;20478;-69
2024/02/13 08:00:06;;;;;;;8.07;4.43;;;8.40;99.90;;;;;;5014110;28;20268;-69
2024/02/13 08:02:32;;;;;;;12.33;4.23;;;8.50;99.90;;;;;;5018182;28;20427;-70
2024/02/13 08:05:00;;;;;;;12.53;4.70;;;8.60;99.90;;;;;;5020022;28;20441;-70
2024/02/13 08:07:27;;;;;;;11.73;4.23;;;8.70;99.90;;;;;;5018778;28;20192;-70
2024/02/13 08:09:54;;;;;;;11.80;4.83;;;8.80;99.90;;;;;;5016829;28;20466;-72
2024/02/13 08:12:20;;;;;;;13.87;4.77;;;9.00;99.90;;;;;;5017553;28;20439;-72
2024/02/13 08:14:45;;;;;;;9.00;5.43;;;9.00;99.90;;;;;;5015194;28;21428;-72
2024/02/13 08:17:12;;;;;;;8.50;4.90;;;9.00;99.90;;;;;;5020383;28;20191;-72
2024/02/13 08:19:40;;;;;;;8.40;5.00;;;9.00;99.90;;;;;;5017123;28;20177;-72
2024/02/13 08:22:07;;;;;;;11.17;5.77;;;9.10;99.90;;;;;;5018971;28;20411;-72
2024/02/13 08:24:35;;;;;;;9.87;5.97;;;9.20;99.90;;;;;;5017756;28;20454;-72
2024/02/13 08:27:01;;;;;;;16.00;5.60;;;9.20;99.90;;;;;;5013731;28;20815;-71
2024/02/13 08:29:26;;;;;;;8.23;5.83;;;9.30;99.90;;;;;;5017200;28;20459;-71
2024/02/13 08:31:53;;;;;;;11.07;5.60;;;9.40;99.90;;;;;;5012672;28;20255;-71
2024/02/13 08:34:18;;;;;;;11.73;6.40;;;9.50;99.90;;;;;;5017841;28;20200;-72
2024/02/13 08:36:45;;;;;;;9.20;5.93;;;9.50;99.90;;;;;;5011745;28;20501;-73
2024/02/13 08:39:14;;;;;;;10.33;5.23;;;9.50;99.90;;;;;;5013128;28;20496;-74
2024/02/13 08:41:40;;;;;;;11.20;5.20;;;9.50;99.90;;;;;;5007523;28;20519;-73
2024/02/13 08:44:07;;;;;;;9.50;5.40;;;9.50;99.90;;;;;;5015657;28;20527;-72
2024/02/13 08:46:33;;;;;;;9.30;5.43;;;9.40;99.90;;;;;;5019720;28;20250;-73
2024/02/13 08:48:58;;;;;;;6.43;4.60;;;9.50;99.90;;;;;;5011438;28;21171;-72
2024/02/13 08:51:26;;;;;;;11.23;5.30;;;9.50;99.90;;;;;;5015359;28;20236;-72
2024/02/13 08:53:52;;;;;;;9.10;4.90;;;9.60;99.90;;;;;;5011427;28;20208;-74
2024/02/13 08:56:18;;;;;;;10.87;6.00;;;9.50;99.90;;;;;;5014935;28;20948;-72
2024/02/13 08:58:44;;;;;;;12.87;6.27;;;9.50;99.90;;;;;;5016696;28;20452;-71
2024/02/13 09:01:10;;;;;;;9.10;6.23;;;9.40;99.90;;;;;;5014741;28;20189;-70
2024/02/13 09:03:35;;;;;;;12.97;6.40;;;9.50;99.90;;;;;;5016125;28;20492;-72
2024/02/13 09:06:04;;;;;;;9.40;6.30;;;9.50;99.90;;;;;;5014701;28;20189;-72
2024/02/13 09:08:37;;;;;;;10.50;5.80;;;9.50;99.90;;;;;;5012548;28;20520;-71
2024/02/13 09:11:03;;;;;;;11.03;5.57;;;9.60;99.90;;;;;;5016356;28;20977;-71
2024/02/13 09:13:29;;;;;;;8.27;5.17;;;9.80;99.90;;;;;;5013684;28;20496;-71
2024/02/13 09:15:55;;;;;;;11.07;6.10;;;9.70;99.90;;;;;;5012463;28;20276;-72
2024/02/13 09:18:24;;;;;;;11.07;6.00;;;9.60;99.90;;;;;;5012667;28;20503;-72
2024/02/13 09:20:50;;;;;;;14.77;8.00;;;9.70;99.90;;;;;;5011558;28;20617;-72
2024/02/13 09:23:19;;;;;;;6.57;5.23;;;9.70;99.90;;;;;;5014436;28;20427;-71
2024/02/13 09:25:49;;;;;;;12.23;6.07;;;9.80;99.90;;;;;;5013644;28;20302;-71
2024/02/13 09:28:18;;;;;;;12.40;5.90;;;9.90;99.90;;;;;;5010083;28;20538;-72
2024/02/13 09:30:47;;;;;;;8.87;5.60;;;10.00;99.90;;;;;;5013945;28;20812;-72
2024/02/13 09:33:14;;;;;;;9.17;5.47;;;10.20;99.90;;;;;;5012710;28;20423;-72
2024/02/13 09:35:40;;;;;;;11.43;5.60;;;10.40;99.90;;;;;;5011354;28;20461;-72
2024/02/13 09:38:06;;;;;;;8.43;5.07;;;10.40;99.90;;;;;;5000681;28;21177;-75
2024/02/13 09:40:33;;;;;;;11.10;4.73;;;10.30;99.90;;;;;;5020416;28;20185;-74
2024/02/13 09:42:58;;;;;;;6.43;5.20;;;10.10;99.90;;;;;;5021011;28;20431;-75
2024/02/13 09:45:26;;;;;;;13.50;5.77;;;10.10;99.90;;;;;;5014741;28;20990;-72
2024/02/13 09:47:52;;;;;;;9.73;5.50;;;10.10;99.90;;;;;;5011238;28;20185;-72
2024/02/13 09:50:18;;;;;;;13.53;6.77;;;10.00;99.90;;;;;;5022624;28;20556;-72
2024/02/13 09:52:48;;;;;;;12.47;5.80;;;9.90;99.90;;;;;;5026080;28;20441;-72
2024/02/13 09:55:18;;;;;;;11.23;5.87;;;9.80;99.90;;;;;;5009560;28;20432;-72
2024/02/13 09:57:45;;;;;;;12.50;5.30;;;9.80;99.90;;;;;;5013095;28;20542;-73
2024/02/13 10:00:17;;;;;;;9.73;6.40;;;9.80;99.90;;;;;;5013103;28;20430;-73
2024/02/13 10:02:44;;;;;;;10.90;6.03;;;9.60;99.90;;;;;;5016566;28;20454;-73
2024/02/13 10:05:10;;;;;;;10.10;5.60;;;9.70;99.90;;;;;;5015169;28;20459;-74
2024/02/13 10:07:41;;;;;;;15.07;5.97;;;9.60;99.90;;;;;;5010025;28;20463;-72
2024/02/13 10:10:10;;;;;;;8.17;5.20;;;9.70;99.90;;;;;;5014706;28;20472;-73
2024/02/13 10:12:53;;;;;;;9.50;5.50;;;9.70;99.90;;;;;;5018421;28;20447;-72
2024/02/13 10:15:22;;;;;;;12.60;5.50;;;9.70;99.90;;;;;;5013345;28;20486;-71
2024/02/13 10:17:49;;;;;;;6.97;4.53;;;9.70;99.90;;;;;;5013959;28;20411;-72
2024/02/13 10:20:17;;;;;;;7.10;4.83;;;9.70;99.90;;;;;;5018145;28;20509;-73
2024/02/13 10:22:48;;;;;;;9.40;5.77;;;9.70;99.90;;;;;;5018478;28;20512;-72
2024/02/13 10:25:29;;;;;;;7.57;4.50;;;9.70;99.90;;;;;;5014884;28;20564;-71
2024/02/13 10:27:55;;;;;;;7.80;4.00;;;9.70;99.90;;;;;;5018385;28;20442;-71
2024/02/13 10:30:27;;;;;;;7.70;4.80;;;9.80;99.90;;;;;;5016798;28;21098;-71
2024/02/13 10:32:53;;;;;;;8.40;5.00;;;9.90;99.90;;;;;;5017030;28;20809;-72
2024/02/13 10:35:22;;;;;;;6.97;4.53;;;9.80;99.90;;;;;;5018055;28;20466;-72
2024/02/13 10:37:49;;;;;;;9.30;3.13;;;9.90;99.90;;;;;;5018070;28;20192;-71
2024/02/13 10:40:19;;;;;;;4.83;3.57;;;9.80;99.90;;;;;;5013154;28;20439;-71
2024/02/13 10:42:45;;;;;;;6.70;3.80;;;9.90;99.90;;;;;;5018238;28;20442;-71
2024/02/13 10:45:14;;;;;;;8.30;3.43;;;10.00;99.90;;;;;;5015496;28;20852;-72
2024/02/13 10:47:49;;;;;;;4.93;3.10;;;10.00;99.90;;;;;;5013820;28;20443;-71
2024/02/13 10:50:15;;;;;;;8.70;4.30;;;9.90;99.90;;;;;;5013793;28;20825;-72
2024/02/13 10:52:41;;;;;;;9.37;4.10;;;9.90;99.90;;;;;;5014991;28;20435;-71
2024/02/13 10:55:10;;;;;;;8.73;3.67;;;10.00;99.90;;;;;;5016202;28;20443;-70
2024/02/13 10:57:37;;;;;;;7.97;3.67;;;10.00;99.90;;;;;;5015639;28;20499;-70
2024/02/13 11:00:14;;;;;;;6.23;3.03;;;10.00;99.90;;;;;;5015381;28;20996;-70
2024/02/13 11:02:43;;;;;;;6.63;2.90;;;10.00;99.90;;;;;;5015110;28;20465;-70
2024/02/13 11:05:09;;;;;;;5.20;3.70;;;10.00;99.90;;;;;;5016550;28;20527;-70
2024/02/13 11:07:36;;;;;;;5.90;3.50;;;9.90;99.90;;;;;;5018602;28;20427;-71
2024/02/13 11:10:05;;;;;;;5.60;3.17;;;10.00;99.90;;;;;;5018097;28;20976;-72
2024/02/13 11:12:33;;;;;;;4.43;3.10;;;10.10;99.90;;;;;;5016345;28;20431;-72
2024/02/13 11:15:17;;;;;;;4.40;3.10;;;10.20;99.90;;;;;;5016223;28;20459;-73
2024/02/13 11:17:53;;;;;;;7.30;3.30;;;10.20;99.90;;;;;;5016714;28;20468;-72
2024/02/13 11:20:22;;;;;;;8.20;3.50;;;10.30;99.90;;;;;;5020218;28;20430;-73
2024/02/13 11:22:57;;;;;;;6.93;3.27;;;10.30;99.90;;;;;;5030113;28;20439;-71
2024/02/13 11:25:27;;;;;;;5.70;3.40;;;10.30;99.90;;;;;;5017473;28;20563;-72
2024/02/13 11:28:06;;;;;;;6.10;2.80;;;10.30;99.90;;;;;;5022824;28;20811;-72
2024/02/13 11:30:35;;;;;;;4.50;3.13;;;10.30;99.90;;;;;;5027272;28;20470;-72
2024/02/13 11:33:05;;;;;;;5.30;3.30;;;10.30;99.90;;;;;;5023217;28;20810;-72
2024/02/13 11:35:33;;;;;;;5.17;3.00;;;10.40;99.90;;;;;;5019220;28;20439;-73
2024/02/13 11:38:15;;;;;;;4.07;3.17;;;10.50;99.90;;;;;;5019083;28;20450;-72
2024/02/13 11:40:42;;;;;;;6.00;3.70;;;10.60;99.90;;;;;;5021285;28;20452;-72
2024/02/13 11:43:21;;;;;;;6.53;3.23;;;10.60;99.90;;;;;;5012419;28;20439;-73
2024/02/13 11:45:47;;;;;;;7.70;3.57;;;10.80;99.90;;;;;;5017312;28;20571;-73
2024/02/13 11:48:15;;;;;;;4.60;3.00;;;11.00;99.90;;;;;;5018664;28;21011;-73
2024/02/13 11:50:41;;;;;;;4.97;2.80;;;11.20;99.90;;;;;;5014675;28;20532;-73
2024/02/13 11:53:07;;;;;;;7.30;3.43;;;11.20;99.90;;;;;;5016758;28;20431;-72
2024/02/13 11:55:33;;;;;;;6.47;3.50;;;11.20;99.90;;;;;;5013087;28;20996;-73
2024/02/13 11:57:59;;;;;;;4.93;3.13;;;11.10;99.90;;;;;;5018427;28;20267;-72
2024/02/13 12:00:26;;;;;;;10.80;3.77;;;11.20;99.90;;;;;;5012407;28;20217;-72
2024/02/13 12:02:54;;;;;;;5.13;3.10;;;11.40;99.90;;;;;;5016754;28;20473;-72
2024/02/13 12:05:26;;;;;;;3.90;2.77;;;11.60;99.90;;;;;;5017678;28;20463;-73
2024/02/13 12:07:53;;;;;;;3.33;2.80;;;11.80;99.90;;;;;;5020408;28;20553;-73
2024/02/13 12:10:21;;;;;;;3.70;2.90;;;12.00;99.90;;;;;;5017811;28;20481;-74
2024/02/13 12:12:49;;;;;;;4.10;3.10;;;12.40;99.90;;;;;;5018018;28;20443;-73
2024/02/13 12:15:20;;;;;;;8.53;4.30;;;13.70;99.90;;;;;;5010568;28;20555;-73
2024/02/13 12:17:54;;;;;;;4.50;3.07;;;14.80;99.90;;;;;;5015163;28;20911;-71
2024/02/13 12:20:25;;;;;;;4.30;3.03;;;15.60;99.90;;;;;;5015170;28;20499;-72
2024/02/13 12:22:54;;;;;;;5.80;3.63;;;16.10;99.90;;;;;;5012905;28;20441;-71
2024/02/13 12:25:20;;;;;;;5.13;3.90;;;17.70;99.90;;;;;;5015270;28;20520;-72
2024/02/13 12:27:48;;;;;;;7.67;4.67;;;18.70;99.90;;;;;;5022208;28;20443;-72
2024/02/13 12:30:14;;;;;;;6.97;4.50;;;19.30;99.90;;;;;;5013067;28;20514;-72
2024/02/13 12:32:40;;;;;;;3.90;2.80;;;20.40;99.90;;;;;;5013813;28;20918;-73
2024/02/13 12:35:21;;;;;;;5.03;3.20;;;20.20;93.20;;;;;;5017957;28;20208;-73
2024/02/13 12:37:51;;;;;;;3.60;2.80;;;19.90;92.60;;;;;;5014747;28;20431;-73
2024/02/13 12:40:18;;;;;;;4.77;3.00;;;20.30;92.10;;;;;;5014000;28;20446;-72
2024/02/13 12:42:44;;;;;;;3.83;3.07;;;21.10;88.40;;;;;;5012840;28;21048;-72
2024/02/13 12:45:10;;;;;;;4.03;3.17;;;21.30;86.30;;;;;;5010090;28;20976;-72
2024/02/13 12:47:36;;;;;;;6.07;3.50;;;21.70;85.90;;;;;;5012015;28;20424;-72
2024/02/13 12:50:07;;;;;;;5.23;3.27;;;21.50;85.10;;;;;;5009958;28;20252;-71
2024/02/13 12:52:32;;;;;;;5.87;4.00;;;21.80;82.30;;;;;;5015506;28;20220;-71
2024/02/13 12:54:58;;;;;;;4.17;3.37;;;21.90;79.90;;;;;;5019685;28;20470;-72
2024/02/13 12:57:29;;;;;;;3.90;3.30;;;22.40;80.50;;;;;;5016314;28;20192;-72